Time;durP1;ratioP1;P1;durP2;ratioP2;P2;SDS_P1;SDS_P2;PMS_P1;PMS_P2;Temp;Humidity;BMP_temperature;BMP_pressure;BME280_temperature;BME280_humidity;BME280_pressure;Samples;Min_cycle;Max_cycle;Signal;HPM_P1;HPM_P2
2022/07/23 00:01:32;;;;;;;11.97;8.07;;;;;;;;;;4976609;28;20690;-73
2022/07/23 00:04:01;;;;;;;10.30;8.57;;;;;;;;;;4976344;28;20210;-73
2022/07/23 00:06:29;;;;;;;8.97;8.07;;;;;;;;;;4976598;28;20225;-73
2022/07/23 00:08:58;;;;;;;9.30;8.40;;;;;;;;;;4976838;28;20232;-73
2022/07/23 00:11:28;;;;;;;9.13;7.90;;;;;;;;;;4976756;28;20274;-73
2022/07/23 00:13:57;;;;;;;8.00;7.17;;;;;;;;;;4976401;28;20201;-73
2022/07/23 00:16:26;;;;;;;8.87;7.57;;;;;;;;;;4976153;28;20408;-73
2022/07/23 00:18:55;;;;;;;9.07;7.30;;;;;;;;;;4976052;28;20220;-73
2022/07/23 00:21:23;;;;;;;10.53;8.07;;;;;;;;;;4983788;28;20217;-72
2022/07/23 00:23:52;;;;;;;9.87;7.20;;;;;;;;;;4995993;28;20255;-73
2022/07/23 00:26:20;;;;;;;8.33;7.47;;;;;;;;;;4995450;28;20236;-73
2022/07/23 00:28:50;;;;;;;8.50;7.70;;;;;;;;;;4983108;28;20217;-73
2022/07/23 00:31:19;;;;;;;8.07;7.30;;;;;;;;;;4976021;28;20210;-73
2022/07/23 00:33:47;;;;;;;9.70;7.47;;;;;;;;;;4976238;28;20693;-73
2022/07/23 00:36:16;;;;;;;8.07;7.27;;;;;;;;;;4976228;28;20229;-72
2022/07/23 00:38:44;;;;;;;8.93;7.00;;;;;;;;;;4976066;28;20213;-72
2022/07/23 00:41:12;;;;;;;11.80;8.00;;;;;;;;;;4976313;28;20206;-73
2022/07/23 00:43:41;;;;;;;7.73;6.93;;;;;;;;;;4976158;28;20754;-72
2022/07/23 00:46:11;;;;;;;8.30;7.47;;;;;;;;;;4976232;28;20280;-72
2022/07/23 00:48:39;;;;;;;9.20;7.53;;;;;;;;;;4975588;28;20212;-72
2022/07/23 00:51:08;;;;;;;8.37;7.30;;;;;;;;;;4975398;28;20220;-72
2022/07/23 00:53:36;;;;;;;7.40;6.70;;;;;;;;;;4975685;28;20257;-72
2022/07/23 00:56:05;;;;;;;8.13;7.30;;;;;;;;;;4975108;28;20206;-72
2022/07/23 00:58:34;;;;;;;8.63;7.70;;;;;;;;;;4975537;28;20733;-72
2022/07/23 01:01:03;;;;;;;9.00;7.90;;;;;;;;;;4975165;28;20202;-72
2022/07/23 01:03:33;;;;;;;9.33;8.47;;;;;;;;;;4974886;28;20298;-72
2022/07/23 01:06:01;;;;;;;9.63;8.63;;;;;;;;;;4975632;28;20209;-72
2022/07/23 01:08:30;;;;;;;9.40;8.40;;;;;;;;;;4975833;28;20210;-72
2022/07/23 01:10:58;;;;;;;9.80;8.80;;;;;;;;;;4975899;28;20256;-72
2022/07/23 01:13:26;;;;;;;12.77;9.33;;;;;;;;;;4975751;28;20205;-72
2022/07/23 01:15:55;;;;;;;10.10;9.03;;;;;;;;;;4975019;28;20209;-72
2022/07/23 01:18:23;;;;;;;10.33;8.83;;;;;;;;;;4974832;28;20222;-72
2022/07/23 01:20:53;;;;;;;9.93;8.93;;;;;;;;;;4974986;28;20283;-73
2022/07/23 01:23:23;;;;;;;9.50;8.60;;;;;;;;;;4975589;28;20276;-73
2022/07/23 01:25:54;;;;;;;10.23;8.83;;;;;;;;;;4974969;28;20206;-73
2022/07/23 01:28:22;;;;;;;8.73;7.97;;;;;;;;;;4974887;28;20210;-72
2022/07/23 01:30:51;;;;;;;9.23;8.20;;;;;;;;;;4975347;28;20284;-73
2022/07/23 01:33:19;;;;;;;9.53;8.67;;;;;;;;;;4974792;28;20649;-73
2022/07/23 01:35:48;;;;;;;11.20;9.00;;;;;;;;;;4974223;28;20210;-73
2022/07/23 01:38:16;;;;;;;10.73;9.53;;;;;;;;;;4974467;28;20233;-73
2022/07/23 01:40:46;;;;;;;12.13;10.17;;;;;;;;;;4974749;28;20214;-72
2022/07/23 01:43:21;;;;;;;11.27;10.27;;;;;;;;;;4974965;28;20683;-73
2022/07/23 01:45:52;;;;;;;14.30;9.47;;;;;;;;;;4974056;28;20615;-73
2022/07/23 01:48:21;;;;;;;11.07;9.90;;;;;;;;;;4974434;28;20208;-72
2022/07/23 01:50:49;;;;;;;9.97;9.07;;;;;;;;;;4974784;28;20209;-72
2022/07/23 01:53:18;;;;;;;10.67;9.47;;;;;;;;;;4975255;28;20214;-72
2022/07/23 01:55:48;;;;;;;10.33;9.33;;;;;;;;;;4974234;28;20214;-72
2022/07/23 01:58:16;;;;;;;9.63;8.57;;;;;;;;;;4974799;28;20757;-72
2022/07/23 02:00:44;;;;;;;10.97;9.90;;;;;;;;;;4975649;28;20205;-73
2022/07/23 02:03:13;;;;;;;9.43;8.53;;;;;;;;;;4978963;28;20212;-72
2022/07/23 02:05:41;;;;;;;10.27;9.17;;;;;;;;;;4978579;28;20260;-72
2022/07/23 02:08:10;;;;;;;10.73;9.40;;;;;;;;;;4979119;28;20275;-73
2022/07/23 02:10:38;;;;;;;10.43;9.43;;;;;;;;;;4978343;28;20260;-72
2022/07/23 02:13:08;;;;;;;11.97;10.77;;;;;;;;;;4978737;28;20213;-73
2022/07/23 02:15:37;;;;;;;12.03;10.90;;;;;;;;;;4978073;28;20256;-72
2022/07/23 02:18:05;;;;;;;11.93;10.73;;;;;;;;;;4978635;28;20236;-72
2022/07/23 02:20:33;;;;;;;12.70;11.50;;;;;;;;;;4978824;28;20217;-72
2022/07/23 02:23:02;;;;;;;14.07;12.77;;;;;;;;;;4978666;28;20221;-72
2022/07/23 02:25:30;;;;;;;13.13;11.67;;;;;;;;;;4977733;28;20209;-72
2022/07/23 02:27:59;;;;;;;13.80;12.40;;;;;;;;;;4978463;28;20709;-72
2022/07/23 02:30:29;;;;;;;12.70;11.43;;;;;;;;;;4978576;28;20629;-73
2022/07/23 02:32:57;;;;;;;13.20;12.00;;;;;;;;;;4978622;28;20202;-73
2022/07/23 02:35:25;;;;;;;12.53;11.23;;;;;;;;;;4977861;28;20206;-73
2022/07/23 02:37:54;;;;;;;13.87;11.73;;;;;;;;;;4978281;28;20272;-73
2022/07/23 02:40:22;;;;;;;12.73;11.50;;;;;;;;;;4977543;28;20679;-73
2022/07/23 02:42:51;;;;;;;14.13;12.73;;;;;;;;;;4977810;28;20623;-73
2022/07/23 02:45:19;;;;;;;12.80;11.70;;;;;;;;;;4977916;28;20210;-73
2022/07/23 02:47:49;;;;;;;14.27;11.77;;;;;;;;;;4977849;28;20221;-73
2022/07/23 02:50:17;;;;;;;12.47;11.27;;;;;;;;;;4977974;28;20220;-73
2022/07/23 02:52:46;;;;;;;12.97;11.60;;;;;;;;;;4977533;28;20253;-73
2022/07/23 02:55:14;;;;;;;14.13;10.77;;;;;;;;;;4976965;28;20210;-73
2022/07/23 02:57:42;;;;;;;12.93;11.63;;;;;;;;;;4976949;28;20235;-73
2022/07/23 03:00:11;;;;;;;13.07;11.67;;;;;;;;;;4977511;28;20257;-73
2022/07/23 03:02:40;;;;;;;12.53;11.23;;;;;;;;;;4977471;28;20214;-73
2022/07/23 03:05:10;;;;;;;12.80;11.50;;;;;;;;;;4977673;28;20209;-73
2022/07/23 03:07:38;;;;;;;13.23;11.10;;;;;;;;;;4977197;28;20230;-73
2022/07/23 03:10:07;;;;;;;12.50;11.27;;;;;;;;;;4977112;28;20217;-73
2022/07/23 03:12:35;;;;;;;13.93;12.70;;;;;;;;;;4977539;28;20741;-73
2022/07/23 03:15:04;;;;;;;14.37;12.87;;;;;;;;;;4976811;28;20205;-73
2022/07/23 03:17:33;;;;;;;14.73;12.80;;;;;;;;;;4977204;28;20737;-73
2022/07/23 03:20:01;;;;;;;12.97;11.87;;;;;;;;;;4977807;28;20264;-74
2022/07/23 03:22:31;;;;;;;13.47;12.07;;;;;;;;;;4977329;28;20284;-73
2022/07/23 03:25:00;;;;;;;14.50;11.43;;;;;;;;;;4976780;28;20206;-73
2022/07/23 03:27:29;;;;;;;14.30;12.73;;;;;;;;;;4976810;28;20226;-73
2022/07/23 03:29:58;;;;;;;13.90;11.83;;;;;;;;;;4977191;28;20201;-73
2022/07/23 03:32:27;;;;;;;14.13;12.40;;;;;;;;;;4976899;28;20217;-73
2022/07/23 03:34:55;;;;;;;12.70;11.20;;;;;;;;;;4977124;28;20210;-73
2022/07/23 03:37:25;;;;;;;14.37;12.97;;;;;;;;;;4977087;28;20225;-73
2022/07/23 03:39:54;;;;;;;14.60;13.10;;;;;;;;;;4976952;28;20755;-73
2022/07/23 03:42:23;;;;;;;16.30;12.50;;;;;;;;;;4977600;28;20292;-73
2022/07/23 03:44:51;;;;;;;13.87;12.47;;;;;;;;;;4976771;28;20257;-73
2022/07/23 03:47:21;;;;;;;13.93;12.53;;;;;;;;;;4976404;28;20284;-73
2022/07/23 03:49:50;;;;;;;13.77;12.47;;;;;;;;;;4976607;28;20210;-73
2022/07/23 03:52:18;;;;;;;14.03;12.40;;;;;;;;;;4976291;28;20610;-73
2022/07/23 03:54:47;;;;;;;13.97;12.50;;;;;;;;;;4976753;28;20577;-73
2022/07/23 03:57:17;;;;;;;14.73;12.97;;;;;;;;;;4976445;28;20226;-73
2022/07/23 03:59:45;;;;;;;13.87;12.47;;;;;;;;;;4957208;29;20229;-73
2022/07/23 04:02:13;;;;;;;14.20;12.70;;;;;;;;;;4957085;29;20206;-73
2022/07/23 04:04:42;;;;;;;15.70;13.00;;;;;;;;;;4957549;29;20261;-73
2022/07/23 04:07:10;;;;;;;15.30;13.07;;;;;;;;;;4959525;28;20639;-73
2022/07/23 04:09:40;;;;;;;14.90;12.37;;;;;;;;;;4976060;28;20237;-73
2022/07/23 04:12:13;;;;;;;14.00;12.70;;;;;;;;;;4976792;28;20205;-73
2022/07/23 04:14:43;;;;;;;14.30;12.90;;;;;;;;;;4976526;28;20236;-73
2022/07/23 04:17:11;;;;;;;14.43;13.03;;;;;;;;;;4975797;28;20233;-73
2022/07/23 04:19:41;;;;;;;14.17;12.70;;;;;;;;;;4976039;28;20273;-73
2022/07/23 04:22:10;;;;;;;14.20;12.70;;;;;;;;;;4975730;28;20252;-73
2022/07/23 04:24:38;;;;;;;14.87;13.37;;;;;;;;;;4975692;28;20272;-73
2022/07/23 04:27:07;;;;;;;13.97;12.47;;;;;;;;;;4975762;28;20233;-73
2022/07/23 04:29:35;;;;;;;14.77;13.07;;;;;;;;;;4976485;28;20602;-72
2022/07/23 04:32:05;;;;;;;14.77;13.30;;;;;;;;;;4976377;28;20206;-73
2022/07/23 04:34:34;;;;;;;14.23;12.80;;;;;;;;;;4976174;28;20214;-73
2022/07/23 04:37:02;;;;;;;14.73;13.37;;;;;;;;;;4975255;28;20222;-73
2022/07/23 04:39:31;;;;;;;14.93;13.53;;;;;;;;;;4975725;28;20699;-73
2022/07/23 04:41:59;;;;;;;15.60;13.90;;;;;;;;;;4976029;28;20210;-73
2022/07/23 04:44:28;;;;;;;15.53;13.10;;;;;;;;;;4975658;28;20206;-73
2022/07/23 04:46:56;;;;;;;14.80;13.27;;;;;;;;;;4975269;28;20233;-73
2022/07/23 04:49:26;;;;;;;13.83;12.47;;;;;;;;;;4975398;28;20206;-73
2022/07/23 04:51:54;;;;;;;14.27;12.77;;;;;;;;;;4975039;28;20205;-73
2022/07/23 04:54:23;;;;;;;14.53;13.03;;;;;;;;;;4975581;28;20273;-73
2022/07/23 04:56:51;;;;;;;15.73;14.03;;;;;;;;;;4975208;28;20222;-73
2022/07/23 04:59:20;;;;;;;15.20;13.73;;;;;;;;;;4975435;28;20229;-73
2022/07/23 05:01:48;;;;;;;16.00;13.80;;;;;;;;;;4975913;28;20213;-73
2022/07/23 05:04:16;;;;;;;15.80;14.13;;;;;;;;;;4975303;28;20210;-73
2022/07/23 05:06:46;;;;;;;16.30;14.07;;;;;;;;;;4974392;28;20308;-73
2022/07/23 05:09:15;;;;;;;14.93;13.37;;;;;;;;;;4975519;28;20671;-73
2022/07/23 05:11:44;;;;;;;15.87;13.93;;;;;;;;;;4975277;28;20241;-73
2022/07/23 05:14:12;;;;;;;15.40;13.80;;;;;;;;;;4975393;28;20689;-73
2022/07/23 05:16:40;;;;;;;15.90;14.20;;;;;;;;;;4975038;28;20597;-73
2022/07/23 05:19:09;;;;;;;16.33;14.73;;;;;;;;;;4975439;28;20284;-73
2022/07/23 05:21:37;;;;;;;14.87;13.40;;;;;;;;;;4974866;28;20217;-73
2022/07/23 05:24:08;;;;;;;15.53;14.10;;;;;;;;;;4974998;28;20256;-73
2022/07/23 05:26:36;;;;;;;15.67;14.27;;;;;;;;;;4974923;28;20226;-73
2022/07/23 05:29:04;;;;;;;15.60;14.00;;;;;;;;;;4974792;28;20276;-73
2022/07/23 05:31:34;;;;;;;15.23;13.73;;;;;;;;;;4974444;28;20221;-73
2022/07/23 05:34:02;;;;;;;16.37;14.77;;;;;;;;;;4974707;28;20260;-73
2022/07/23 05:36:32;;;;;;;16.07;14.37;;;;;;;;;;4989581;28;20576;-73
2022/07/23 05:39:00;;;;;;;15.70;14.20;;;;;;;;;;4994204;28;20213;-73
2022/07/23 05:41:31;;;;;;;15.53;14.03;;;;;;;;;;4993956;28;20201;-73
2022/07/23 05:43:59;;;;;;;15.10;13.53;;;;;;;;;;4995324;28;20546;-73
2022/07/23 05:46:28;;;;;;;14.43;13.03;;;;;;;;;;4993692;28;20228;-73
2022/07/23 05:48:57;;;;;;;14.63;13.20;;;;;;;;;;4982268;28;20206;-73
2022/07/23 05:51:26;;;;;;;14.57;12.83;;;;;;;;;;4974727;28;20260;-73
2022/07/23 05:53:55;;;;;;;13.70;12.30;;;;;;;;;;4974887;28;20214;-73
2022/07/23 05:56:23;;;;;;;13.33;11.43;;;;;;;;;;4974627;28;20649;-73
2022/07/23 05:58:53;;;;;;;13.93;12.60;;;;;;;;;;4974703;28;20241;-73
2022/07/23 06:01:21;;;;;;;14.00;12.23;;;;;;;;;;4974566;28;20272;-73
2022/07/23 06:03:50;;;;;;;13.70;12.17;;;;;;;;;;4987148;28;20299;-73
2022/07/23 06:06:18;;;;;;;12.37;11.10;;;;;;;;;;4975639;28;20237;-73
2022/07/23 06:08:47;;;;;;;10.87;9.80;;;;;;;;;;4974704;28;20206;-73
2022/07/23 06:11:15;;;;;;;11.20;9.63;;;;;;;;;;4974641;28;20202;-73
2022/07/23 06:13:43;;;;;;;11.87;10.57;;;;;;;;;;4974495;28;20264;-73
2022/07/23 06:16:15;;;;;;;10.13;9.13;;;;;;;;;;4974389;28;20734;-73
2022/07/23 06:18:46;;;;;;;10.37;9.30;;;;;;;;;;4974408;28;20268;-73
2022/07/23 06:21:14;;;;;;;10.10;9.03;;;;;;;;;;4974418;28;20746;-73
2022/07/23 06:24:02;;;;;;;11.80;8.03;;;;;;;;;;4974630;28;20233;-73
2022/07/23 06:26:31;;;;;;;10.03;8.60;;;;;;;;;;4974354;28;20225;-73
2022/07/23 06:28:59;;;;;;;9.02;8.10;;;;;;;;;;4974106;28;20603;-73
2022/07/23 06:31:30;;;;;;;9.32;7.63;;;;;;;;;;4974661;28;20694;-73
2022/07/23 06:33:58;;;;;;;11.20;8.75;;;;;;;;;;4974754;28;20216;-73
2022/07/23 06:36:26;;;;;;;8.02;7.15;;;;;;;;;;4974705;28;20221;-73
2022/07/23 06:38:55;;;;;;;9.93;6.93;;;;;;;;;;4974806;28;20272;-73
2022/07/23 06:41:24;;;;;;;7.53;6.30;;;;;;;;;;4975304;28;20277;-73
2022/07/23 06:43:53;;;;;;;8.55;6.75;;;;;;;;;;4974473;28;20213;-73
2022/07/23 06:46:21;;;;;;;8.95;5.88;;;;;;;;;;4975060;28;20265;-73
2022/07/23 06:48:51;;;;;;;6.63;5.80;;;;;;;;;;4978328;28;20644;-73
2022/07/23 06:51:20;;;;;;;6.80;5.05;;;;;;;;;;4979009;28;20731;-75
2022/07/23 06:53:48;;;;;;;6.72;6.00;;;;;;;;;;4978462;28;20214;-75
2022/07/23 06:56:16;;;;;;;7.25;5.20;;;;;;;;;;4978228;28;20636;-74
2022/07/23 06:58:45;;;;;;;8.07;5.00;;;;;;;;;;4981077;28;20206;-75
2022/07/23 07:01:13;;;;;;;6.72;4.53;;;;;;;;;;4978383;28;20314;-75
2022/07/23 07:03:42;;;;;;;6.78;4.55;;;;;;;;;;4977475;28;20256;-75
2022/07/23 07:06:12;;;;;;;7.90;4.57;;;;;;;;;;4978331;28;20762;-74
2022/07/23 07:08:40;;;;;;;7.57;4.75;;;;;;;;;;4978079;28;20210;-75
2022/07/23 07:11:09;;;;;;;7.75;4.57;;;;;;;;;;4978085;28;20261;-75
2022/07/23 07:13:37;;;;;;;5.75;4.45;;;;;;;;;;4977439;28;20241;-76
2022/07/23 07:16:06;;;;;;;8.63;4.68;;;;;;;;;;4977414;28;20209;-74
2022/07/23 07:18:35;;;;;;;5.80;4.38;;;;;;;;;;4977139;28;20308;-75
2022/07/23 07:21:03;;;;;;;5.00;4.30;;;;;;;;;;4976754;28;20316;-76
2022/07/23 07:23:33;;;;;;;7.03;3.90;;;;;;;;;;4977324;28;20194;-75
2022/07/23 07:26:01;;;;;;;4.90;4.40;;;;;;;;;;4976971;28;20228;-75
2022/07/23 07:28:30;;;;;;;5.95;4.80;;;;;;;;;;4977239;28;20213;-75
2022/07/23 07:30:58;;;;;;;4.78;4.20;;;;;;;;;;4977464;28;20213;-75
2022/07/23 07:33:27;;;;;;;5.25;4.75;;;;;;;;;;4977538;28;20573;-75
2022/07/23 07:35:56;;;;;;;6.45;4.78;;;;;;;;;;4977219;28;20659;-76
2022/07/23 07:38:24;;;;;;;5.72;4.50;;;;;;;;;;4977382;28;20574;-75
2022/07/23 07:40:54;;;;;;;8.55;4.75;;;;;;;;;;4977346;28;20237;-76
2022/07/23 07:43:23;;;;;;;7.45;5.07;;;;;;;;;;4977727;28;20194;-76
2022/07/23 07:45:51;;;;;;;6.82;4.40;;;;;;;;;;4977117;28;20620;-75
2022/07/23 07:48:20;;;;;;;6.25;5.03;;;;;;;;;;4977393;28;20717;-75
2022/07/23 07:50:48;;;;;;;7.45;4.10;;;;;;;;;;4976936;28;20284;-75
2022/07/23 07:53:17;;;;;;;5.50;3.63;;;;;;;;;;4976774;28;20209;-76
2022/07/23 07:55:45;;;;;;;5.28;4.15;;;;;;;;;;4977117;28;20206;-78
2022/07/23 07:58:20;;;;;;;4.93;4.00;;;;;;;;;;4976206;28;20186;-75
2022/07/23 08:00:48;;;;;;;6.40;4.55;;;;;;;;;;4976900;28;20252;-75
2022/07/23 08:03:17;;;;;;;5.32;3.80;;;;;;;;;;4976821;28;20747;-76
2022/07/23 08:05:47;;;;;;;6.50;4.32;;;;;;;;;;4976553;28;20206;-76
2022/07/23 08:08:15;;;;;;;5.15;4.28;;;;;;;;;;4976938;28;20222;-77
2022/07/23 08:10:44;;;;;;;4.88;4.20;;;;;;;;;;4976202;28;20206;-75
2022/07/23 08:13:14;;;;;;;4.97;3.85;;;;;;;;;;4976889;28;20563;-77
2022/07/23 08:15:45;;;;;;;4.40;3.90;;;;;;;;;;4976255;28;20289;-76
2022/07/23 08:18:14;;;;;;;6.38;4.00;;;;;;;;;;4976234;28;20198;-76
2022/07/23 08:20:42;;;;;;;5.57;4.05;;;;;;;;;;4976397;28;20236;-76
2022/07/23 08:23:11;;;;;;;6.28;4.05;;;;;;;;;;4976561;28;20190;-76
2022/07/23 08:25:41;;;;;;;4.47;4.00;;;;;;;;;;4977304;28;20210;-76
2022/07/23 08:28:10;;;;;;;3.58;3.22;;;;;;;;;;4975801;28;20226;-76
2022/07/23 08:30:39;;;;;;;3.88;3.00;;;;;;;;;;4975959;28;20205;-76
2022/07/23 08:33:11;;;;;;;4.78;3.50;;;;;;;;;;4976037;28;20210;-77
2022/07/23 08:36:00;;;;;;;3.83;2.88;;;;;;;;;;4987482;28;20204;-76
2022/07/23 08:38:28;;;;;;;5.50;3.25;;;;;;;;;;4996717;28;20205;-75
2022/07/23 08:40:58;;;;;;;3.47;2.97;;;;;;;;;;4995162;28;20581;-76
2022/07/23 08:43:27;;;;;;;4.03;2.72;;;;;;;;;;4995297;28;20211;-76
2022/07/23 08:45:57;;;;;;;3.70;2.40;;;;;;;;;;4995611;28;20209;-76
2022/07/23 08:48:27;;;;;;;3.25;2.78;;;;;;;;;;4995429;28;20212;-76
2022/07/23 08:50:57;;;;;;;3.58;3.00;;;;;;;;;;4995075;28;20186;-76
2022/07/23 08:53:26;;;;;;;3.17;2.30;;;;;;;;;;4995455;28;20709;-76
2022/07/23 08:55:56;;;;;;;3.67;2.38;;;;;;;;;;4994794;28;20208;-76
2022/07/23 08:58:25;;;;;;;3.25;2.15;;;;;;;;;;4995148;28;20255;-76
2022/07/23 09:00:56;;;;;;;3.95;2.63;;;;;;;;;;4995108;28;20216;-76
2022/07/23 09:03:27;;;;;;;4.72;2.28;;;;;;;;;;4994602;28;20201;-77
2022/07/23 09:05:56;;;;;;;4.50;2.20;;;;;;;;;;4987486;28;20194;-76
2022/07/23 09:08:36;;;;;;;3.45;2.30;;;;;;;;;;4975592;28;20304;-76
2022/07/23 09:11:05;;;;;;;3.55;2.15;;;;;;;;;;4976988;28;20189;-75
2022/07/23 09:13:34;;;;;;;5.20;1.85;;;;;;;;;;4975749;28;20206;-76
2022/07/23 09:16:04;;;;;;;2.10;1.88;;;;;;;;;;4975316;28;20205;-75
2022/07/23 09:18:39;;;;;;;2.63;1.88;;;;;;;;;;4975635;28;20252;-75
2022/07/23 09:21:09;;;;;;;4.72;1.92;;;;;;;;;;4965274;28;20336;-73
2022/07/23 09:23:39;;;;;;;2.97;1.77;;;;;;;;;;4975557;28;20585;-74
2022/07/23 09:26:18;;;;;;;2.88;1.90;;;;;;;;;;4974661;28;20256;-74
2022/07/23 09:28:54;;;;;;;3.35;1.88;;;;;;;;;;4975319;28;20216;-73
2022/07/23 09:31:23;;;;;;;3.92;1.60;;;;;;;;;;4975407;28;20213;-74
2022/07/23 09:33:53;;;;;;;2.03;1.50;;;;;;;;;;4973861;28;20236;-74
2022/07/23 09:36:29;;;;;;;3.45;1.48;;;;;;;;;;4974844;28;20234;-74
2022/07/23 09:38:57;;;;;;;3.58;1.80;;;;;;;;;;4975296;28;20256;-74
2022/07/23 09:41:26;;;;;;;2.63;1.80;;;;;;;;;;4974834;28;20713;-73
2022/07/23 09:43:58;;;;;;;3.22;1.60;;;;;;;;;;4974928;28;20205;-74
2022/07/23 09:46:28;;;;;;;3.00;1.60;;;;;;;;;;4974558;28;20276;-74
2022/07/23 09:48:58;;;;;;;1.65;1.50;;;;;;;;;;4974185;28;20210;-74
2022/07/23 09:51:31;;;;;;;3.90;1.55;;;;;;;;;;4974268;28;20217;-74
2022/07/23 09:53:59;;;;;;;4.07;1.70;;;;;;;;;;4974582;28;20209;-73
2022/07/23 09:56:29;;;;;;;2.63;1.42;;;;;;;;;;4974640;28;20635;-74
2022/07/23 09:59:04;;;;;;;1.42;1.30;;;;;;;;;;4975009;28;20288;-74
2022/07/23 10:01:33;;;;;;;2.00;1.48;;;;;;;;;;4975222;28;20247;-73
2022/07/23 10:04:03;;;;;;;1.88;1.40;;;;;;;;;;4974503;28;20545;-74
2022/07/23 10:06:32;;;;;;;2.75;1.60;;;;;;;;;;4973856;28;20221;-74
2022/07/23 10:09:01;;;;;;;2.08;1.67;;;;;;;;;;4975358;28;20276;-74
2022/07/23 10:11:30;;;;;;;2.00;1.70;;;;;;;;;;4974902;28;20217;-73
2022/07/23 10:14:00;;;;;;;2.90;1.60;;;;;;;;;;4974316;28;20210;-73
2022/07/23 10:16:30;;;;;;;1.75;1.30;;;;;;;;;;4974411;28;20661;-74
2022/07/23 10:18:58;;;;;;;2.40;1.10;;;;;;;;;;4974280;28;20579;-74
2022/07/23 10:21:32;;;;;;;2.50;1.40;;;;;;;;;;4974790;28;20228;-74
2022/07/23 10:24:10;;;;;;;3.63;1.50;;;;;;;;;;4977860;28;20222;-75
2022/07/23 10:26:42;;;;;;;3.15;1.20;;;;;;;;;;4959134;28;20729;-75
2022/07/23 10:29:18;;;;;;;3.42;1.60;;;;;;;;;;4975975;28;20206;-74
2022/07/23 10:31:52;;;;;;;2.78;1.50;;;;;;;;;;4978092;28;20643;-74
2022/07/23 10:34:36;;;;;;;1.88;1.60;;;;;;;;;;4978025;28;20562;-74
2022/07/23 10:37:09;;;;;;;1.83;1.25;;;;;;;;;;4977863;28;20221;-74
2022/07/23 10:39:38;;;;;;;2.92;1.60;;;;;;;;;;4978579;28;20606;-75
2022/07/23 10:42:10;;;;;;;2.25;1.58;;;;;;;;;;4977474;28;20272;-74
2022/07/23 10:44:43;;;;;;;2.80;1.80;;;;;;;;;;4978058;28;20210;-74
2022/07/23 10:50:13;;;;;;;4.03;1.27;;;;;;;;;;4977448;28;20285;-76
2022/07/23 10:52:42;;;;;;;3.63;1.67;;;;;;;;;;4977605;28;20202;-77
2022/07/23 10:55:30;;;;;;;1.60;1.50;;;;;;;;;;4977830;28;20202;-76
2022/07/23 10:57:58;;;;;;;2.08;1.25;;;;;;;;;;4977853;28;20225;-76
2022/07/23 11:00:28;;;;;;;1.83;1.20;;;;;;;;;;4978571;28;20220;-77
2022/07/23 11:02:58;;;;;;;4.80;1.33;;;;;;;;;;4977569;28;20722;-77
2022/07/23 11:05:27;;;;;;;1.67;1.20;;;;;;;;;;4977953;28;20210;-77
2022/07/23 11:08:14;;;;;;;3.88;1.42;;;;;;;;;;4977399;28;20230;-77
2022/07/23 11:10:45;;;;;;;2.70;1.00;;;;;;;;;;4977488;28;20186;-77
2022/07/23 11:13:32;;;;;;;1.60;0.93;;;;;;;;;;4977963;28;20182;-76
2022/07/23 11:16:21;;;;;;;1.10;1.00;;;;;;;;;;4977116;28;20245;-76
2022/07/23 11:19:05;;;;;;;1.63;1.10;;;;;;;;;;4974311;28;20675;-76
2022/07/23 11:21:47;;;;;;;2.13;1.13;;;;;;;;;;4977141;28;20217;-77
2022/07/23 11:24:17;;;;;;;2.85;1.15;;;;;;;;;;4977606;28;20208;-77
2022/07/23 11:26:49;;;;;;;2.08;1.23;;;;;;;;;;4976868;28;20235;-76
2022/07/23 11:29:36;;;;;;;1.95;1.20;;;;;;;;;;4977314;28;20558;-76
2022/07/23 11:32:05;;;;;;;1.98;1.60;;;;;;;;;;4977526;28;20268;-76
2022/07/23 11:34:34;;;;;;;2.80;1.00;;;;;;;;;;4977497;28;20634;-77
2022/07/23 11:37:04;;;;;;;2.58;1.30;;;;;;;;;;4976852;28;20225;-76
2022/07/23 11:39:33;;;;;;;1.05;0.85;;;;;;;;;;4977025;28;20201;-77
2022/07/23 11:42:04;;;;;;;1.92;1.00;;;;;;;;;;4976750;28;20260;-77
2022/07/23 11:44:34;;;;;;;1.63;1.02;;;;;;;;;;4977079;28;20190;-76
2022/07/23 11:47:16;;;;;;;1.95;1.00;;;;;;;;;;4976302;28;20564;-77
2022/07/23 11:49:53;;;;;;;1.67;1.20;;;;;;;;;;4976809;28;20213;-77
2022/07/23 11:52:21;;;;;;;2.00;1.05;;;;;;;;;;4976655;28;20621;-76
2022/07/23 11:54:51;;;;;;;2.92;1.00;;;;;;;;;;4977331;28;20213;-77
2022/07/23 11:57:21;;;;;;;1.30;1.00;;;;;;;;;;4976915;28;20286;-77
2022/07/23 11:59:52;;;;;;;3.53;1.10;;;;;;;;;;4976519;28;20601;-77
2022/07/23 12:02:21;;;;;;;1.02;0.82;;;;;;;;;;4976296;28;20281;-77
2022/07/23 12:04:52;;;;;;;1.50;1.10;;;;;;;;;;4976841;28;20260;-77
2022/07/23 12:07:25;;;;;;;0.90;0.90;;;;;;;;;;4976584;28;20296;-77
2022/07/23 12:09:54;;;;;;;1.23;0.90;;;;;;;;;;4976778;28;20260;-77
2022/07/23 12:12:24;;;;;;;3.00;1.10;;;;;;;;;;4976507;28;20206;-77
2022/07/23 12:14:53;;;;;;;2.60;1.00;;;;;;;;;;4976628;28;20613;-77
2022/07/23 12:17:22;;;;;;;4.88;1.20;;;;;;;;;;4976198;28;20233;-77
2022/07/23 12:19:51;;;;;;;1.67;1.27;;;;;;;;;;4976076;28;20220;-77
2022/07/23 12:22:20;;;;;;;2.17;1.15;;;;;;;;;;4976228;28;20672;-77
2022/07/23 12:24:55;;;;;;;1.73;1.17;;;;;;;;;;4974856;28;20201;-76
2022/07/23 12:27:25;;;;;;;1.20;1.00;;;;;;;;;;4974630;28;20229;-76
2022/07/23 12:29:54;;;;;;;1.52;1.10;;;;;;;;;;4975009;28;20225;-76
2022/07/23 12:32:23;;;;;;;1.00;1.00;;;;;;;;;;4974835;28;20210;-77
2022/07/23 12:34:53;;;;;;;2.35;1.13;;;;;;;;;;4976172;28;20210;-77
2022/07/23 12:37:28;;;;;;;1.75;0.95;;;;;;;;;;4975647;28;20222;-77
2022/07/23 12:39:56;;;;;;;2.35;1.20;;;;;;;;;;4975664;28;20217;-77
2022/07/23 12:42:26;;;;;;;2.20;1.10;;;;;;;;;;4975977;28;20284;-77
2022/07/23 12:45:04;;;;;;;1.27;1.08;;;;;;;;;;4975199;28;20218;-77
2022/07/23 12:47:51;;;;;;;2.65;1.10;;;;;;;;;;4975583;28;20268;-77
2022/07/23 12:50:33;;;;;;;3.35;0.88;;;;;;;;;;4975842;28;20558;-77
2022/07/23 12:53:05;;;;;;;1.40;0.88;;;;;;;;;;4973972;28;20210;-76
2022/07/23 12:55:41;;;;;;;2.55;1.30;;;;;;;;;;4974279;28;20887;-76
2022/07/23 12:58:41;;;;;;;1.25;1.00;;;;;;;;;;4973616;28;20209;-77
2022/07/23 13:01:30;;;;;;;1.33;1.10;;;;;;;;;;4973817;28;20213;-77
2022/07/23 13:04:02;;;;;;;2.10;1.10;;;;;;;;;;4973509;28;20301;-77
2022/07/23 13:06:51;;;;;;;1.65;1.00;;;;;;;;;;4973699;28;20698;-76
2022/07/23 13:09:21;;;;;;;1.35;1.08;;;;;;;;;;4973542;28;20210;-76
2022/07/23 13:11:49;;;;;;;1.73;1.20;;;;;;;;;;4974508;28;20264;-77
2022/07/23 13:14:20;;;;;;;3.08;0.98;;;;;;;;;;4975062;28;20208;-77
2022/07/23 13:16:49;;;;;;;2.50;1.13;;;;;;;;;;4975285;28;20750;-77
2022/07/23 13:19:18;;;;;;;1.13;0.95;;;;;;;;;;4974991;28;20214;-78
2022/07/23 13:21:46;;;;;;;3.20;1.00;;;;;;;;;;4975155;28;20221;-77
2022/07/23 13:24:15;;;;;;;1.73;0.80;;;;;;;;;;4975254;28;20698;-77
2022/07/23 13:26:43;;;;;;;1.20;1.00;;;;;;;;;;4975096;28;20556;-77
2022/07/23 13:29:15;;;;;;;1.35;1.10;;;;;;;;;;4973502;28;20260;-77
2022/07/23 13:32:05;;;;;;;1.35;1.00;;;;;;;;;;4973543;28;20725;-77
2022/07/23 13:34:53;;;;;;;1.38;1.00;;;;;;;;;;4973302;28;20206;-77
2022/07/23 13:37:22;;;;;;;2.28;0.90;;;;;;;;;;4973095;28;20232;-77
2022/07/23 13:39:52;;;;;;;1.20;1.02;;;;;;;;;;4973499;28;20694;-77
2022/07/23 13:42:20;;;;;;;2.33;0.80;;;;;;;;;;4973774;28;20202;-77
2022/07/23 13:44:50;;;;;;;2.22;0.95;;;;;;;;;;4973077;28;20225;-76
2022/07/23 13:47:20;;;;;;;1.85;1.00;;;;;;;;;;4973013;28;20288;-76
2022/07/23 13:49:49;;;;;;;1.00;0.88;;;;;;;;;;4973109;28;20214;-77
2022/07/23 13:52:17;;;;;;;2.13;0.90;;;;;;;;;;4973247;28;20205;-76
2022/07/23 13:54:47;;;;;;;0.80;0.80;;;;;;;;;;4973089;28;20588;-77
2022/07/23 13:57:16;;;;;;;1.80;0.95;;;;;;;;;;4975221;28;20632;-76
2022/07/23 13:59:45;;;;;;;1.27;1.08;;;;;;;;;;4977455;28;20201;-76
2022/07/23 14:02:17;;;;;;;0.88;0.70;;;;;;;;;;4976970;28;20257;-76
2022/07/23 14:04:53;;;;;;;1.50;1.05;;;;;;;;;;4977151;28;20218;-77
2022/07/23 14:07:22;;;;;;;1.55;0.90;;;;;;;;;;4977495;28;20226;-77
2022/07/23 14:09:51;;;;;;;2.90;1.00;;;;;;;;;;4976948;28;20205;-76
2022/07/23 14:12:20;;;;;;;1.45;1.13;;;;;;;;;;4977191;28;20213;-77
2022/07/23 14:14:51;;;;;;;4.22;1.00;;;;;;;;;;4977084;28;20233;-77
2022/07/23 14:17:20;;;;;;;2.33;1.00;;;;;;;;;;4977007;28;20716;-77
2022/07/23 14:19:49;;;;;;;2.28;1.10;;;;;;;;;;4976994;28;20213;-79
2022/07/23 14:22:20;;;;;;;1.48;0.90;;;;;;;;;;4978228;28;20224;-77
2022/07/23 14:25:09;;;;;;;1.55;1.17;;;;;;;;;;4978417;28;20249;-76
2022/07/23 14:27:38;;;;;;;1.58;0.88;;;;;;;;;;4978385;28;20637;-76
2022/07/23 14:30:08;;;;;;;1.38;0.98;;;;;;;;;;4978280;28;20671;-77
2022/07/23 14:32:38;;;;;;;3.80;1.08;;;;;;;;;;4978102;28;20655;-77
2022/07/23 14:35:07;;;;;;;2.47;1.02;;;;;;;;;;4977921;28;20209;-77
2022/07/23 14:37:40;;;;;;;1.45;0.98;;;;;;;;;;4978256;28;20284;-77
2022/07/23 14:40:10;;;;;;;4.43;1.10;;;;;;;;;;4978167;28;20635;-77
2022/07/23 14:42:39;;;;;;;1.90;0.82;;;;;;;;;;4977909;28;20718;-77
2022/07/23 14:45:07;;;;;;;0.80;0.80;;;;;;;;;;4978295;28;20698;-77
2022/07/23 14:47:37;;;;;;;0.85;0.85;;;;;;;;;;4978096;28;20257;-77
2022/07/23 14:50:08;;;;;;;0.77;0.70;;;;;;;;;;4978113;28;20215;-77
2022/07/23 14:52:36;;;;;;;1.98;0.90;;;;;;;;;;4977588;28;20205;-77
2022/07/23 14:55:06;;;;;;;0.80;0.80;;;;;;;;;;4977985;28;20663;-77
2022/07/23 14:57:35;;;;;;;1.88;1.08;;;;;;;;;;4978019;28;20226;-77